createdAt,value
2023-03-17T12:48:01.200Z,94572.00
2023-03-17T12:49:01.204Z,94574.00
2023-03-17T12:50:01.161Z,94578.00
2023-03-17T12:51:01.161Z,94574.00
2023-03-17T12:52:01.183Z,94562.00
2023-03-17T12:53:01.189Z,94560.00
2023-03-17T12:54:01.148Z,94552.00
2023-03-17T12:55:01.144Z,94548.00
2023-03-17T12:56:01.137Z,94556.00
2023-03-17T12:57:01.131Z,94558.00
2023-03-17T13:40:01.339Z,94531.00
2023-03-17T13:43:01.373Z,94517.00
2023-03-17T16:16:04.848Z,94444.00
2023-03-17T17:29:08.469Z,94513.00
2023-03-17T17:30:08.502Z,94519.00
2023-03-17T17:31:08.612Z,94519.00
2023-03-17T17:32:08.603Z,94519.00
2023-03-17T17:33:08.716Z,94523.00
2023-03-17T17:34:08.718Z,94517.00
2023-03-17T17:35:08.773Z,94523.00
2023-03-17T17:36:08.904Z,94509.00
2023-03-17T17:37:08.864Z,94507.00
2023-03-17T17:38:08.884Z,94540.00
2023-03-17T17:39:08.970Z,94521.00
2023-03-17T17:40:08.997Z,94509.00
2023-03-17T17:41:09.122Z,94525.00
2023-03-17T17:42:09.125Z,94521.00
2023-03-17T17:43:09.203Z,94519.00
2023-03-17T17:44:09.229Z,94507.00
2023-03-17T17:45:09.293Z,94523.00
2023-03-17T17:46:09.316Z,94519.00
2023-03-17T17:47:09.430Z,94525.00
2023-03-17T17:48:09.451Z,94519.00
2023-03-17T17:49:09.497Z,94523.00
2023-03-17T17:50:09.560Z,94527.00
2023-03-17T17:51:09.615Z,94513.00
2023-03-17T17:52:09.670Z,94523.00
2023-03-17T17:53:09.746Z,94521.00
2023-03-17T17:54:09.811Z,94519.00
2023-03-17T17:55:09.857Z,94519.00
2023-03-17T17:56:09.894Z,94527.00
2023-03-17T17:57:09.958Z,94521.00
2023-03-17T17:58:10.042Z,94521.00
2023-03-17T17:59:10.095Z,94537.00
2023-03-17T18:00:10.179Z,94531.00
2023-03-17T18:01:10.223Z,94535.00
2023-03-17T18:02:10.264Z,94523.00
2023-03-17T18:03:10.344Z,94525.00
2023-03-17T18:04:10.458Z,94527.00
2023-03-17T18:05:10.473Z,94535.00
2023-03-17T18:06:10.521Z,94537.00
2023-03-17T18:07:10.609Z,94540.00
2023-03-17T18:09:10.701Z,94540.00
2023-03-17T18:10:10.780Z,94537.00
2023-03-17T18:11:10.827Z,94538.00
2023-03-17T18:12:10.900Z,94535.00
2023-03-17T18:13:10.981Z,94533.00
2023-03-17T18:14:10.987Z,94535.00
2023-03-17T18:15:12.048Z,94533.00
2023-03-17T18:16:11.167Z,94531.00
2023-03-17T18:17:11.211Z,94535.00
2023-03-17T18:18:11.279Z,94542.00
2023-03-17T18:19:11.332Z,94535.00
2023-03-17T18:20:11.393Z,94525.00
2023-03-17T18:21:11.450Z,94537.00
2023-03-17T18:22:11.525Z,94537.00
2023-03-17T18:23:11.591Z,94540.00
2023-03-17T18:24:11.634Z,94538.00
2023-03-17T18:25:11.693Z,94540.00
2023-03-17T18:26:11.734Z,94525.00
2023-03-17T18:27:11.810Z,94552.00
2023-03-17T18:28:11.869Z,94550.00
2023-03-17T18:29:11.900Z,94540.00
2023-03-17T18:30:11.964Z,94544.00
2023-03-17T18:31:11.998Z,94546.00
2023-03-17T18:32:12.135Z,94550.00
2023-03-17T18:33:12.173Z,94574.00
2023-03-17T18:34:12.193Z,94548.00
2023-03-17T18:35:12.258Z,94544.00
2023-03-17T18:36:12.308Z,94544.00
2023-03-17T18:37:12.400Z,94537.00
2023-03-17T18:38:12.418Z,94540.00
2023-03-17T18:39:12.488Z,94562.00
2023-03-17T18:40:17.013Z,94550.00
2023-03-17T18:42:12.492Z,94566.00
2023-03-17T18:43:12.523Z,94558.00
2023-03-17T18:44:12.495Z,94558.00
2023-03-17T18:45:12.532Z,94554.00
2023-03-17T18:46:12.524Z,94554.00
2023-03-17T18:47:12.485Z,94552.00
2023-03-17T18:48:12.488Z,94550.00
2023-03-17T18:49:12.532Z,94552.00
2023-03-17T18:50:12.594Z,94564.00
2023-03-17T18:51:12.623Z,94574.00
2023-03-17T18:52:12.729Z,94560.00
2023-03-17T18:53:12.739Z,94558.00
2023-03-17T18:54:12.830Z,94566.00
2023-03-17T18:55:12.880Z,94566.00
2023-03-17T18:56:12.945Z,94560.00
2023-03-17T18:57:12.998Z,94568.00
2023-03-17T18:58:13.078Z,94562.00
2023-03-17T18:59:13.132Z,94578.00
2023-03-17T19:00:13.174Z,94570.00
2023-03-17T19:02:13.323Z,94554.00
2023-03-17T19:03:13.406Z,94562.00
2023-03-17T19:04:13.459Z,94572.00
2023-03-17T19:05:13.527Z,94564.00
2023-03-17T19:06:13.565Z,94566.00
2023-03-17T19:07:13.660Z,94558.00
2023-03-17T19:08:13.721Z,94572.00
2023-03-17T19:09:13.771Z,94568.00
2023-03-17T19:10:13.807Z,94556.00
2023-03-17T19:11:13.892Z,94572.00
2023-03-17T19:12:13.951Z,94574.00
2023-03-17T19:13:14.027Z,94568.00
2023-03-17T19:14:14.080Z,94570.00
2023-03-17T19:15:14.133Z,94574.00
2023-03-17T19:16:14.215Z,94574.00
2023-03-17T19:17:14.277Z,94584.00
2023-03-17T19:18:14.281Z,94576.00
2023-03-17T19:19:14.354Z,94572.00
2023-03-17T19:20:14.438Z,94587.00
2023-03-17T19:21:14.493Z,94591.00
2023-03-17T19:22:14.474Z,94582.00
2023-03-17T19:23:14.517Z,94584.00
2023-03-17T19:24:14.538Z,94580.00
2023-03-17T19:25:14.622Z,94585.00
2023-03-17T19:26:14.666Z,94591.00
2023-03-17T19:27:14.679Z,94589.00
2023-03-17T19:28:14.727Z,94578.00
2023-03-17T19:29:14.725Z,94574.00
2023-03-17T19:30:14.753Z,94582.00
2023-03-17T19:31:14.801Z,94574.00
2023-03-17T19:32:14.807Z,94589.00
2023-03-17T19:33:14.816Z,94591.00
2023-03-17T19:34:14.886Z,94576.00
2023-03-17T19:35:14.881Z,94564.00
2023-03-17T19:36:14.903Z,94572.00
2023-03-17T19:37:14.951Z,94580.00
2023-03-17T19:38:14.992Z,94572.00
2023-03-17T19:39:15.056Z,94572.00
2023-03-17T19:40:15.119Z,94560.00
2023-03-17T19:41:15.137Z,94570.00
2023-03-17T19:42:15.184Z,94582.00
2023-03-17T19:43:25.662Z,94568.00
2023-03-17T19:45:15.185Z,94564.00
2023-03-17T19:46:15.257Z,94584.00
2023-03-17T19:47:15.168Z,94584.00
2023-03-17T19:48:15.190Z,94570.00
2023-03-17T19:49:15.171Z,94574.00
2023-03-17T19:50:15.151Z,94580.00
2023-03-17T19:51:15.149Z,94587.00
2023-03-17T19:52:15.140Z,94580.00
2023-03-17T19:53:15.123Z,94578.00
2023-03-17T19:54:15.131Z,94574.00
2023-03-17T19:55:15.119Z,94574.00
2023-03-17T19:56:15.121Z,94585.00
2023-03-17T19:57:15.106Z,94587.00
2023-03-17T19:58:15.148Z,94580.00
2023-03-17T19:59:15.181Z,94580.00
2023-03-17T20:00:15.248Z,94578.00
2023-03-17T20:01:15.309Z,94578.00
2023-03-17T20:02:15.302Z,94593.00
2023-03-17T20:03:15.337Z,94597.00
2023-03-17T20:04:15.417Z,94591.00
2023-03-17T20:05:15.380Z,94580.00
2023-03-17T20:06:15.411Z,94584.00
2023-03-17T20:07:15.452Z,94578.00
2023-03-17T20:08:15.474Z,94584.00
2023-03-17T20:09:15.517Z,94582.00
2023-03-17T20:10:15.502Z,94574.00
2023-03-17T20:11:15.560Z,94570.00
2023-03-17T20:12:15.532Z,94589.00
2023-03-17T20:13:15.600Z,94582.00
2023-03-17T20:14:15.602Z,94578.00
2023-03-17T20:15:15.667Z,94580.00
2023-03-17T20:16:15.695Z,94582.00
2023-03-17T20:17:15.695Z,94587.00
2023-03-17T20:18:15.736Z,94580.00
2023-03-17T20:19:15.727Z,94593.00
2023-03-17T20:20:15.745Z,94589.00
2023-03-17T20:21:15.764Z,94587.00
2023-03-17T20:22:15.820Z,94582.00
2023-03-17T20:23:15.811Z,94587.00
2023-03-17T20:24:15.849Z,94584.00
2023-03-17T20:25:15.845Z,94587.00
2023-03-17T20:27:15.891Z,94585.00
2023-03-17T20:28:15.894Z,94593.00
2023-03-17T20:29:15.868Z,94599.00
2023-03-17T20:30:15.872Z,94591.00
2023-03-17T20:31:15.953Z,94574.00
2023-03-17T20:32:15.869Z,94576.00
2023-03-17T20:33:15.884Z,94585.00
2023-03-17T20:34:15.910Z,94597.00
2023-03-17T20:35:15.929Z,94603.00
2023-03-17T20:36:15.904Z,94593.00
2023-03-17T20:37:15.908Z,94595.00
2023-03-17T20:38:15.911Z,94589.00
2023-03-17T20:39:15.915Z,94589.00
2023-03-17T20:40:15.924Z,94591.00
2023-03-17T20:41:15.882Z,94591.00
2023-03-17T20:42:15.877Z,94587.00
2023-03-17T20:43:15.897Z,94587.00
2023-03-17T20:44:15.991Z,94589.00
2023-03-17T20:45:15.880Z,94597.00
2023-03-17T20:46:15.952Z,94595.00
2023-03-17T20:47:15.869Z,94603.00
2023-03-17T20:48:15.848Z,94601.00
2023-03-17T20:49:15.869Z,94597.00
2023-03-17T20:50:15.885Z,94597.00
2023-03-17T23:20:18.526Z,94715.00
2023-03-17T23:21:18.510Z,94717.00
2023-03-17T23:22:18.578Z,94715.00
2023-03-17T23:23:18.612Z,94721.00
2023-03-17T23:24:18.641Z,94719.00
2023-03-17T23:25:18.687Z,94721.00
2023-03-17T23:26:18.698Z,94721.00
2023-03-17T23:27:18.743Z,94723.00
2023-03-17T23:28:18.808Z,94723.00
2023-03-17T23:29:18.842Z,94723.00
2023-03-17T23:30:18.892Z,94727.00
2023-03-17T23:31:18.951Z,94729.00
2023-03-17T23:32:18.916Z,94731.00
2023-03-17T23:33:18.967Z,94732.00
2023-03-17T23:34:19.001Z,94729.00
2023-03-17T23:35:19.058Z,94732.00
2023-03-17T23:36:19.136Z,94736.00
2023-03-17T23:37:19.125Z,94736.00
2023-03-17T23:38:19.146Z,94736.00
2023-03-17T23:39:19.156Z,94738.00
2023-03-17T23:40:19.233Z,94734.00
2023-03-17T23:41:19.245Z,94732.00
2023-03-17T23:42:19.321Z,94734.00
2023-03-17T23:43:19.318Z,94734.00
2023-03-17T23:44:19.373Z,94734.00
2023-03-17T23:45:19.392Z,94729.00
2023-03-17T23:46:19.462Z,94731.00
2023-03-17T23:47:19.497Z,94731.00
2023-03-17T23:48:19.525Z,94729.00
2023-03-17T23:49:19.576Z,94734.00
2023-03-17T23:50:19.641Z,94732.00
2023-03-17T23:51:19.645Z,94734.00
2023-03-17T23:52:19.685Z,94732.00
2023-03-17T23:53:19.708Z,94736.00
2023-03-17T23:54:19.758Z,94740.00
2023-03-17T23:55:19.806Z,94740.00
2023-03-17T23:56:19.827Z,94742.00
2023-03-17T23:57:19.908Z,94744.00
2023-03-17T23:58:19.951Z,94748.00
2023-03-17T23:59:19.988Z,94748.00
